Norwegian Jade — C6WK7 — position and weather

sailwx.info

Track history (hours):
 
Tides and Currents Weather Stations Pressure Air Temp Water Temp Dewpoint Dewpoint Depression Visibility Wind Speed Wind Dir Waves Ship Positions

Norwegian Jade

Last reported at 2017-Jun-22 16:00 UTC. Time now 2017-Jun-22 16:21 UTC.
Position N 53°33' E 009°54'.

Length 294 m; draft 8.6 m.

Type: Passenger vessel. MMSI: 308416000.

Date/timePositionNaut miles runAvg speedWind from/ knotsBaromVisibWave heightAir tempDewpointWater temp
2017-Jun-22 16:00N 53°33' E 009°54'2 3.4
2017-Jun-22 15:30N 53°33' E 009°56'0 0.0
2017-Jun-22 15:00N 53°33' E 009°56'0 0.0
2017-Jun-22 14:30N 53°33' E 009°56'0 0.0
2017-Jun-22 13:30N 53°33' E 009°56'0 0.0
2017-Jun-22 13:00N 53°33' E 009°56'0 0.0
2017-Jun-22 12:30N 53°33' E 009°56'0 0.0
2017-Jun-22 12:00N 53°33' E 009°56'0 0.0
2017-Jun-22 11:30N 53°33' E 009°56'0 0.0
2017-Jun-22 11:00N 53°33' E 009°56'0 0.0
2017-Jun-22 10:30N 53°33' E 009°56'0 0.0
2017-Jun-22 10:00N 53°33' E 009°56'0 0.0
2017-Jun-22 09:30N 53°33' E 009°56'0 0.0
2017-Jun-22 09:00N 53°33' E 009°56'0 0.0
2017-Jun-22 08:30N 53°33' E 009°56'0 0.0
2017-Jun-22 08:00N 53°33' E 009°56'0 0.0
2017-Jun-22 07:30N 53°33' E 009°56'0 0.0
2017-Jun-22 07:00N 53°33' E 009°56'0 0.0
2017-Jun-22 06:30N 53°33' E 009°56'0 0.0
2017-Jun-22 06:00N 53°33' E 009°56'0 0.0
2017-Jun-22 05:30N 53°33' E 009°56'0 0.0
2017-Jun-22 05:00N 53°33' E 009°56'0 0.0
2017-Jun-22 04:30N 53°33' E 009°56'0 0.0
2017-Jun-22 04:00N 53°33' E 009°56'2 4.9
2017-Jun-22 03:31N 53°33' E 009°52'4 8.9
2017-Jun-22 03:00N 53°34' E 009°45'713.3
2017-Jun-22 02:31N 53°36' E 009°35'612.6
2017-Jun-22 02:00N 53°42' E 009°30'714.4
2017-Jun-22 01:31N 53°48' E 009°23'714.4
2017-Jun-22 01:01N 53°53' E 009°14'5 9.2
2017-Jun-22 00:30N 53°53' E 009°06'714.9
2017-Jun-22 00:00N 53°51' E 008°54'713.8
2017-Jun-21 23:31N 53°53' E 008°43'815.2
2017-Jun-21 23:00N 53°58' E 008°34'917.4
2017-Jun-21 22:30N 53°60' E 008°19'713.7
2017-Jun-21 22:00N 53°59' E 008°07'612.2
2017-Jun-21 21:30N 53°58' E 007°57'612.5
2017-Jun-21 21:00N 53°57' E 007°47'713.5
2017-Jun-21 20:30N 53°55' E 007°36'714.9
2017-Jun-21 20:00N 53°54' E 007°23'915.1
2017-Jun-21 19:24N 53°52' E 007°08'1315.7
2017-Jun-21 18:35N 53°49' E 006°47'116.0
2017-Jun-21 18:31N 53°48' E 006°45'816.0
2017-Jun-21 18:00N 53°47' E 006°32'1816.2
2017-Jun-21 16:55N 53°41' E 006°03'916.3
2017-Jun-21 16:23N 53°39' E 005°49'616.5
2017-Jun-21 16:01N 53°37' E 005°40'816.8
2017-Jun-21 15:31N 53°34' E 005°26'917.1
2017-Jun-21 15:00N 53°31' E 005°13'1717.4
2017-Jun-21 14:01N 53°25' E 004°45'917.7
2017-Jun-21 13:30N 53°17' E 004°39'918.3
2017-Jun-21 13:00N 53°09' E 004°32'918.0
2017-Jun-21 12:31N 53°01' E 004°24'917.9
2017-Jun-21 12:01N 52°54' E 004°16'917.8
2017-Jun-21 11:29N 52°46' E 004°07'1020.3
2017-Jun-21 11:00N 52°39' E 003°56'1121.0
2017-Jun-21 10:30N 52°31' E 003°45'1020.8
2017-Jun-21 10:00N 52°23' E 003°34'20813372.7
2017-Jun-21 10:00N 50°48' W 001°24'199409.8 110 / 241020.0 17.0 16.0
2017-Jun-21 09:30N 52°16' E 003°22'1120.3
2017-Jun-21 08:59N 52°08' E 003°10'1020.2
2017-Jun-21 08:29N 52°01' E 002°59'1019.8
2017-Jun-21 08:00N 51°54' E 002°48'1019.6
2017-Jun-21 07:30N 51°46' E 002°38'1019.4
2017-Jun-21 06:59N 51°38' E 002°28'919.2
2017-Jun-21 06:31N 51°31' E 002°19'918.7
2017-Jun-21 06:01N 51°23' E 002°11'918.6
2017-Jun-21 05:31N 51°15' E 002°04'918.2
2017-Jun-21 05:00N 51°10' E 001°52'918.0
2017-Jun-21 04:31N 51°04' E 001°41'917.9
2017-Jun-21 04:01N 50°58' E 001°30'917.8
2017-Jun-21 03:30N 50°50' E 001°24'1018.4
2017-Jun-21 02:57N 50°41' E 001°17'818.9
2017-Jun-21 02:30N 50°35' E 001°09'1419.0
2017-Jun-21 01:45N 50°28' E 000°49'519.2
2017-Jun-21 01:29N 50°27' E 000°40'1019.0
2017-Jun-21 00:55N 50°24' E 000°25'818.8
2017-Jun-21 00:30N 50°23' E 000°12'918.6
2017-Jun-21 00:00N 50°22' W 000°02'918.8
2017-Jun-20 23:31N 50°24' W 000°16'918.8
2017-Jun-20 23:00N 50°29' W 000°29'1019.3
2017-Jun-20 22:31N 50°34' W 000°42'918.4
2017-Jun-20 22:01N 50°39' W 000°54'714.2
2017-Jun-20 21:30N 50°44' W 001°03'917.6
2017-Jun-20 21:01N 50°46' W 001°16'4 8.9
2017-Jun-20 20:30N 50°50' W 001°19'5 9.2
2017-Jun-20 20:00N 50°53' W 001°24'1 1.0
2017-Jun-20 19:25N 50°54' W 001°25'0 0.0
2017-Jun-20 18:55N 50°54' W 001°25'0 0.0
2017-Jun-20 18:28N 50°54' W 001°25'0 0.0
2017-Jun-20 17:58N 50°54' W 001°25'0 0.0
2017-Jun-20 17:28N 50°54' W 001°25'0 0.0
2017-Jun-20 16:55N 50°54' W 001°25'0 0.0
2017-Jun-20 16:28N 50°54' W 001°25'0 0.0
2017-Jun-20 15:58N 50°54' W 001°25'0 0.0
2017-Jun-20 15:25N 50°54' W 001°25'0 0.0
2017-Jun-20 14:55N 50°54' W 001°25'0 0.0
2017-Jun-20 13:58N 50°54' W 001°25'0 0.0
2017-Jun-20 13:28N 50°54' W 001°25'0 0.0
2017-Jun-20 12:58N 50°54' W 001°25'0 0.0
2017-Jun-20 12:28N 50°54' W 001°25'0 0.0
2017-Jun-20 11:55N 50°54' W 001°25'0 0.0
2017-Jun-20 11:28N 50°54' W 001°25'0 0.0
2017-Jun-20 10:55N 50°54' W 001°25'0 0.0
2017-Jun-20 10:25N 50°54' W 001°25'0 0.0
2017-Jun-20 09:55N 50°54' W 001°25'0 0.0
2017-Jun-20 09:25N 50°54' W 001°25'0 0.0
2017-Jun-20 08:55N 50°54' W 001°25'0 0.0
2017-Jun-20 08:25N 50°54' W 001°25'0 0.0
2017-Jun-20 07:55N 50°54' W 001°25'0 0.0
2017-Jun-20 07:28N 50°54' W 001°25'0 0.0
2017-Jun-20 06:58N 50°54' W 001°25'0 0.0
2017-Jun-20 06:28N 50°54' W 001°25'0 0.0
2017-Jun-20 05:58N 50°54' W 001°25'0 0.0
2017-Jun-20 05:29N 50°54' W 001°25'1 2.6
2017-Jun-20 05:00N 50°53' W 001°24'5 9.6
2017-Jun-20 04:30N 50°50' W 001°18'4 8.7
2017-Jun-20 04:00N 50°46' W 001°14'817.0
2017-Jun-20 03:31N 50°43' W 001°02'714.1
2017-Jun-20 03:00N 50°38' W 000°54'713.8
2017-Jun-20 02:30N 50°34' W 000°45'816.2
2017-Jun-20 02:00N 50°33' W 000°33'918.6
2017-Jun-20 01:30N 50°32' W 000°18'1019.3
2017-Jun-20 01:00N 50°32' W 000°03'1019.9
2017-Jun-20 00:30N 50°34' E 000°12'1020.0
2017-Jun-20 00:00N 50°37' E 000°27'1019.7
2017-Jun-19 23:30N 50°42' E 000°41'1019.4
2017-Jun-19 23:00N 50°48' E 000°53'1019.6
2017-Jun-19 22:30N 50°54' E 001°06'1019.9
2017-Jun-19 22:00N 50°60' E 001°18'1019.7
2017-Jun-19 21:30N 51°05' E 001°31'1019.0
2017-Jun-19 21:00N 51°12' E 001°42'918.6
2017-Jun-19 20:30N 51°19' E 001°52'918.8
2017-Jun-19 20:00N 51°27' E 001°59'1019.4
2017-Jun-19 19:30N 51°35' E 002°09'1019.8
2017-Jun-19 19:00N 51°42' E 002°19'1020.3
2017-Jun-19 18:30N 51°50' E 002°29'1020.1
2017-Jun-19 18:00N 51°59' E 002°38'1121.2
2017-Jun-19 17:30N 52°10' E 002°37'1221.6
2017-Jun-19 16:56N 52°22' E 002°37'2121.7
2017-Jun-19 15:59N 52°42' E 002°37'1021.5
2017-Jun-19 15:30N 52°53' E 002°37'1121.6
2017-Jun-19 15:00N 53°04' E 002°38'1121.6
2017-Jun-19 14:30N 53°14' E 002°43'2220.9
2017-Jun-19 13:28N 53°34' E 002°56'1320.5
2017-Jun-19 12:51N 53°46' E 003°05'720.7
2017-Jun-19 12:30N 53°52' E 003°11'10020.4
2017-Jun-19 07:37N 55°30' E 003°41'320.6
2017-Jun-19 07:30N 55°33' E 003°41'1020.7
2017-Jun-19 06:59N 55°43' E 003°41'1120.9
2017-Jun-19 06:29N 55°53' E 003°41'1221.0
2017-Jun-19 05:55N 56°05' E 003°41'12721.4
2017-Jun-19 00:00N 58°12' E 003°54'14320.4 350 / 81024.0 5.4 11.0 10.0
2017-Jun-18 16:57N 60°35' E 004°22'920.2
2017-Jun-18 16:30N 60°42' E 004°32'713.6
2017-Jun-18 16:00N 60°43' E 004°46'1019.5
2017-Jun-18 15:30N 60°35' E 004°55'1019.3
2017-Jun-18 15:00N 60°26' E 005°03'8 8.3
2017-Jun-18 14:00N 60°24' E 005°19'0 0.0
2017-Jun-18 13:28N 60°24' E 005°19'0 0.0
2017-Jun-18 12:58N 60°24' E 005°19'0 0.0
2017-Jun-18 12:28N 60°24' E 005°19'0 0.0
2017-Jun-18 11:58N 60°24' E 005°19'0 0.0
2017-Jun-18 11:19N 60°24' E 005°19'0 0.0
2017-Jun-18 10:58N 60°24' E 005°19'0 0.0
2017-Jun-18 10:25N 60°24' E 005°19'0 0.0
2017-Jun-18 09:58N 60°24' E 005°19'0 0.0
2017-Jun-18 09:28N 60°24' E 005°19'0 0.0
2017-Jun-18 08:58N 60°24' E 005°19'0 0.0
2017-Jun-18 08:28N 60°24' E 005°19'0 0.0
2017-Jun-18 07:58N 60°24' E 005°19'0 0.0
2017-Jun-18 07:28N 60°24' E 005°19'0 0.0
2017-Jun-18 06:58N 60°24' E 005°19'0 0.0
2017-Jun-18 06:28N 60°24' E 005°19'0 0.0
2017-Jun-18 05:58N 60°24' E 005°19'0 0.0
2017-Jun-18 05:28N 60°24' E 005°19'0 0.0
2017-Jun-18 04:58N 60°24' E 005°19'0 0.1
2017-Jun-18 04:30N 60°24' E 005°19'1 2.3
2017-Jun-18 04:00N 60°24' E 005°17'3 6.4
2017-Jun-18 03:30N 60°23' E 005°11'4 8.9
2017-Jun-18 03:00N 60°25' E 005°03'612.7
2017-Jun-18 02:29N 60°31' E 004°57'612.8
2017-Jun-18 02:00N 60°37' E 004°53'611.7
2017-Jun-18 01:31N 60°43' E 004°49'612.0
2017-Jun-18 01:00N 60°48' E 004°44'612.6
2017-Jun-18 00:30N 60°54' E 004°41'612.4
2017-Jun-18 00:00N 60°60' E 004°46'612.0
2017-Jun-17 23:29N 61°03' E 004°57'612.2
2017-Jun-17 23:00N 61°06' E 005°08'611.4
2017-Jun-17 22:30N 61°04' E 005°19'611.0
2017-Jun-17 22:00N 61°05' E 005°31'713.7
2017-Jun-17 21:30N 61°08' E 005°43'714.0
2017-Jun-17 21:00N 61°08' E 005°58'714.1
2017-Jun-17 20:30N 61°08' E 006°13'713.8
2017-Jun-17 20:00N 61°06' E 006°27'713.2
2017-Jun-17 19:30N 61°11' E 006°37'713.9
2017-Jun-17 19:00N 61°09' E 006°51'713.8
2017-Jun-17 18:30N 61°04' E 007°01'713.8
2017-Jun-17 18:00N 60°58' E 007°06'5 9.4
2017-Jun-17 17:30N 60°54' E 007°09'2 4.3
2017-Jun-17 17:00N 60°52' E 007°07'0 0.0
2017-Jun-17 16:29N 60°52' E 007°07'0 0.0
2017-Jun-17 15:59N 60°52' E 007°07'0 0.0
2017-Jun-17 15:29N 60°52' E 007°07'0 0.0
2017-Jun-17 14:59N 60°52' E 007°07'0 0.0
2017-Jun-17 14:29N 60°52' E 007°07'0 0.0
2017-Jun-17 13:29N 60°52' E 007°07'0 0.0
2017-Jun-17 12:59N 60°52' E 007°07'0 0.0
2017-Jun-17 12:29N 60°52' E 007°07'0 0.0
2017-Jun-17 11:59N 60°52' E 007°07'0 0.0
2017-Jun-17 11:29N 60°52' E 007°07'0 0.0
2017-Jun-17 10:59N 60°52' E 007°07'0 0.0
2017-Jun-17 10:29N 60°52' E 007°07'0 0.0
2017-Jun-17 09:59N 60°52' E 007°07'0 0.0
2017-Jun-17 09:29N 60°52' E 007°07'0 0.0
2017-Jun-17 08:59N 60°52' E 007°07'0 0.0
2017-Jun-17 08:29N 60°52' E 007°07'0 0.0
2017-Jun-17 07:59N 60°52' E 007°07'0 0.0
2017-Jun-17 07:29N 60°52' E 007°07'0 0.0
2017-Jun-17 06:59N 60°52' E 007°07'0 0.1
2017-Jun-17 06:30N 60°52' E 007°07'2 3.9
2017-Jun-17 06:00N 60°54' E 007°09'5 9.9
2017-Jun-17 05:30N 60°58' E 007°05'714.0
2017-Jun-17 05:00N 61°05' E 007°01'815.4
2017-Jun-17 04:30N 61°10' E 006°48'713.7
2017-Jun-17 04:00N 61°09' E 006°34'918.4
2017-Jun-17 03:30N 61°07' E 006°15'1121.6
2017-Jun-17 03:00N 61°08' E 005°53'1121.1
2017-Jun-17 02:30N 61°05' E 005°32'1019.4
2017-Jun-17 02:00N 61°06' E 005°12'816.1
2017-Jun-17 01:30N 61°12' E 005°00'713.3
2017-Jun-17 01:00N 61°15' E 004°48'918.5
2017-Jun-17 00:30N 61°16' E 004°29'1019.8
2017-Jun-17 00:00N 61°25' E 004°25'2130.5
2017-Jun-17 00:00N 61°24' E 004°24'1224.0 240 / 141019.0 5.4 12.0 10.0
2017-Jun-16 23:30N 61°36' E 004°24'1020.1
2017-Jun-16 23:00N 61°46' E 004°28'1020.4
2017-Jun-16 22:31N 61°55' E 004°36'1020.3
2017-Jun-16 22:00N 62°04' E 004°45'1020.1
2017-Jun-16 21:30N 62°13' E 004°55'1019.9
2017-Jun-16 21:01N 62°22' E 005°06'1019.7
2017-Jun-16 20:30N 62°29' E 005°20'1019.7
2017-Jun-16 20:00N 62°30' E 005°42'1020.1
2017-Jun-16 19:30N 62°26' E 006°02'918.3
2017-Jun-16 19:00N 62°24' E 006°20'1020.3
2017-Jun-16 18:30N 62°27' E 006°41'816.6
2017-Jun-16 18:00N 62°22' E 006°56'917.8
2017-Jun-16 17:30N 62°14' E 007°02'714.6
2017-Jun-16 17:00N 62°06' E 006°58'611.4
2017-Jun-16 16:30N 62°07' E 007°10'1 2.4
2017-Jun-16 15:59N 62°06' E 007°12'0 0.0
2017-Jun-16 15:29N 62°06' E 007°12'0 0.0
2017-Jun-16 14:59N 62°06' E 007°12'0 0.0
2017-Jun-16 14:29N 62°06' E 007°12'0 0.0
2017-Jun-16 13:30N 62°06' E 007°12'0 0.0
2017-Jun-16 13:00N 62°06' E 007°12'0 0.0
2017-Jun-16 12:30N 62°06' E 007°12'0 0.0
2017-Jun-16 12:00N 62°06' E 007°12'0 0.0
2017-Jun-16 11:30N 62°06' E 007°12'0 0.0
2017-Jun-16 11:00N 62°06' E 007°12'0 0.0
2017-Jun-16 10:30N 62°06' E 007°12'0 0.0
2017-Jun-16 09:58N 62°06' E 007°12'0 0.0
2017-Jun-16 09:28N 62°06' E 007°12'0 0.0
2017-Jun-16 08:58N 62°06' E 007°12'0 0.1
2017-Jun-16 08:30N 62°06' E 007°12'1 1.5
2017-Jun-16 08:00N 62°07' E 007°11'612.0
2017-Jun-16 07:30N 62°06' E 006°58'3 1.3
2017-Jun-16 05:23N 62°05' E 006°53'2 3.6
2017-Jun-16 04:56N 62°06' E 006°55'3 6.2
2017-Jun-16 04:30N 62°08' E 006°58'2 4.9
2017-Jun-16 04:00N 62°10' E 007°01'3 5.3
2017-Jun-16 03:30N 62°13' E 007°02'3 5.7
2017-Jun-16 03:00N 62°16' E 007°01'3 5.1
2017-Jun-16 02:30N 62°18' E 006°59'3 5.4
2017-Jun-16 02:00N 62°21' E 006°56'3 5.5
2017-Jun-16 01:30N 62°23' E 006°55'3 5.1
2017-Jun-16 01:00N 62°26' E 006°53'3 5.7
2017-Jun-16 00:30N 62°27' E 006°48'3 5.5
2017-Jun-16 00:00N 62°28' E 006°42'52712.2
2017-Jun-16 00:00N 62°24' E 006°36'3 5.1 250 / 51008.0 5.4 13.0 11.0
2017-Jun-15 23:30N 62°27' E 006°36'3 5.6
2017-Jun-15 23:00N 62°25' E 006°31'3 5.6
2017-Jun-15 22:30N 62°24' E 006°25'3 5.6
2017-Jun-15 22:00N 62°24' E 006°19'3 5.7
2017-Jun-15 21:30N 62°23' E 006°13'3 5.6
2017-Jun-15 20:59N 62°23' E 006°07'3 5.3
2017-Jun-15 20:30N 62°24' E 006°03'2 4.7
2017-Jun-15 20:00N 62°27' E 006°03'3 6.0
2017-Jun-15 19:30N 62°27' E 006°09'1 2.0
2017-Jun-15 18:59N 62°28' E 006°09'0 0.0
2017-Jun-15 18:29N 62°28' E 006°09'0 0.0
2017-Jun-15 17:59N 62°28' E 006°09'0 0.0
2017-Jun-15 17:29N 62°28' E 006°09'0 0.0
2017-Jun-15 16:59N 62°28' E 006°09'0 0.0
2017-Jun-15 16:29N 62°28' E 006°09'0 0.0
2017-Jun-15 15:59N 62°28' E 006°09'0 0.0
2017-Jun-15 15:29N 62°28' E 006°09'0 0.0
2017-Jun-15 14:59N 62°28' E 006°09'0 0.0
2017-Jun-15 14:29N 62°28' E 006°09'0 0.0
2017-Jun-15 13:29N 62°28' E 006°09'0 0.0
2017-Jun-15 12:59N 62°28' E 006°09'0 0.0
2017-Jun-15 12:29N 62°28' E 006°09'0 0.0
2017-Jun-15 11:59N 62°28' E 006°09'0 0.0
2017-Jun-15 11:29N 62°28' E 006°09'0 0.0
2017-Jun-15 10:59N 62°28' E 006°09'0 0.0
2017-Jun-15 10:29N 62°28' E 006°09'0 0.0
2017-Jun-15 09:59N 62°28' E 006°09'0 0.0
2017-Jun-15 09:29N 62°28' E 006°09'0 0.0
2017-Jun-15 08:59N 62°28' E 006°09'0 0.0
2017-Jun-15 08:29N 62°28' E 006°09'0 0.0
2017-Jun-15 07:59N 62°28' E 006°09'0 0.0
2017-Jun-15 07:29N 62°28' E 006°09'0 0.0
2017-Jun-15 06:59N 62°28' E 006°09'0 0.0
2017-Jun-15 06:29N 62°28' E 006°09'0 0.0
2017-Jun-15 05:59N 62°28' E 006°09'0 0.0
2017-Jun-15 05:29N 62°28' E 006°09'1 2.2
2017-Jun-15 05:00N 62°27' E 006°11'510.9
2017-Jun-15 04:30N 62°27' E 005°59'612.5
2017-Jun-15 04:00N 62°29' E 005°46'714.1
2017-Jun-15 03:30N 62°30' E 005°31'714.9
2017-Jun-15 03:00N 62°27' E 005°16'816.3
2017-Jun-15 02:30N 62°22' E 005°04'816.7
2017-Jun-15 02:00N 62°16' E 004°50'816.0
2017-Jun-15 01:30N 62°11' E 004°38'2616.8
2017-Jun-15 00:00N 61°48' E 004°12'13216.1 180 / 151015.0 5.4 12.0 12.0
2017-Jun-14 15:47N 59°36' E 004°11'517.1
2017-Jun-14 15:31N 59°31' E 004°11'917.2
2017-Jun-14 15:00N 59°23' E 004°12'1817.6
2017-Jun-14 14:00N 59°05' E 004°12'918.3
2017-Jun-14 13:30N 58°56' E 004°16'918.1
2017-Jun-14 13:01N 58°47' E 004°20'175.3
2017-Jun-14 13:00N 58°48' E 004°18'1020.6 170 / 111019.0 0.0 12.0 11.0
2017-Jun-14 12:31N 58°39' E 004°25'918.0
2017-Jun-14 12:01N 58°31' E 004°32'918.2
2017-Jun-14 11:31N 58°22' E 004°39'1218.0
2017-Jun-14 10:52N 58°11' E 004°47'718.1
2017-Jun-14 10:30N 58°05' E 004°51'16120.8
2017-Jun-14 02:46N 55°33' E 006°28'520.8
2017-Jun-14 02:31N 55°28' E 006°32'1120.8
2017-Jun-14 01:59N 55°18' E 006°38'1020.5
2017-Jun-14 01:30N 55°09' E 006°44'1020.2
2017-Jun-14 01:01N 54°59' E 006°50'1020.0
2017-Jun-14 00:30N 54°50' E 006°57'1819.6
2017-Jun-13 23:35N 54°35' E 007°14'4219.2
2017-Jun-13 21:22N 54°03' E 008°01'718.2
2017-Jun-13 21:00N 54°01' E 008°12'815.1
2017-Jun-13 20:30N 53°59' E 008°24'1019.8
2017-Jun-13 20:00N 53°56' E 008°40'714.4
2017-Jun-13 19:30N 53°50' E 008°48'1019.1
2017-Jun-13 19:00N 53°52' E 009°04'612.7
2017-Jun-13 18:31N 53°53' E 009°15'714.2
2017-Jun-13 18:01N 53°48' E 009°23'713.3
2017-Jun-13 17:31N 53°42' E 009°30'611.7
2017-Jun-13 17:01N 53°37' E 009°34'611.6
2017-Jun-13 16:30N 53°34' E 009°42'5 9.3
2017-Jun-13 16:00N 53°33' E 009°50'4 7.5
2017-Jun-13 15:31N 53°32' E 009°56'0 0.3
2017-Jun-13 14:58N 53°33' E 009°56'0 0.0
2017-Jun-13 13:58N 53°33' E 009°56'0 0.0
2017-Jun-13 13:28N 53°33' E 009°56'0 0.0
2017-Jun-13 12:58N 53°33' E 009°56'0 0.0
2017-Jun-13 12:28N 53°33' E 009°56'0 0.0
2017-Jun-13 11:58N 53°33' E 009°56'0 0.0
2017-Jun-13 11:28N 53°33' E 009°56'0 0.0
2017-Jun-13 10:58N 53°33' E 009°56'0 0.0
2017-Jun-13 10:28N 53°33' E 009°56'0 0.0
2017-Jun-13 09:58N 53°33' E 009°56'0 0.0
2017-Jun-13 09:28N 53°33' E 009°56'0 0.0
2017-Jun-13 08:58N 53°33' E 009°56'0 0.0
2017-Jun-13 08:28N 53°33' E 009°56'0 0.0
2017-Jun-13 07:58N 53°33' E 009°56'0 0.0
2017-Jun-13 07:25N 53°33' E 009°56'0 0.0
2017-Jun-13 06:58N 53°33' E 009°56'0 0.0
2017-Jun-13 06:28N 53°33' E 009°56'0 0.0
2017-Jun-13 05:58N 53°33' E 009°56'0 0.0
2017-Jun-13 05:28N 53°33' E 009°56'0 0.0
2017-Jun-13 04:58N 53°33' E 009°56'0 0.0
2017-Jun-13 04:28N 53°33' E 009°56'0 0.0
2017-Jun-13 03:59N 53°33' E 009°56'2 3.7
2017-Jun-13 03:30N 53°32' E 009°53'5 9.5
2017-Jun-13 03:00N 53°34' E 009°46'612.4
2017-Jun-13 02:31N 53°36' E 009°36'612.7
2017-Jun-13 02:00N 53°41' E 009°30'815.6
2017-Jun-13 01:31N 53°48' E 009°23'815.2
2017-Jun-13 01:01N 53°53' E 009°13'510.9
2017-Jun-13 00:31N 53°52' E 009°04'714.9
2017-Jun-13 00:00N 53°50' E 008°52'714.2
2017-Jun-12 23:30N 53°54' E 008°42'815.3
2017-Jun-12 23:00N 53°58' E 008°31'816.3
2017-Jun-12 22:30N 53°60' E 008°17'612.0
2017-Jun-12 21:58N 53°59' E 008°06'714.5
2017-Jun-12 21:30N 53°58' E 007°55'8015.9
2017-Jun-12 16:29N 53°38' E 005°44'  
Track history (hours):
 
Tides and Currents Weather Stations Pressure Air Temp Water Temp Dewpoint Dewpoint Depression Visibility Wind Speed Wind Dir Waves Ship Positions

Norwegian Jade

Last reported at 2017-Jun-22 16:00 UTC. Time now 2017-Jun-22 16:21 UTC.
Position N 53°33' E 009°54'.

Length 294 m; draft 8.6 m.

Type: Passenger vessel. MMSI: 308416000.

Date/timePositionNaut miles runAvg speedWind from/ knotsBaromVisibWave heightAir tempDewpointWater temp
2017-Jun-22 16:00N 53°33' E 009°54'2 3.4
2017-Jun-22 15:30N 53°33' E 009°56'0 0.0
2017-Jun-22 15:00N 53°33' E 009°56'0 0.0
2017-Jun-22 14:30N 53°33' E 009°56'0 0.0
2017-Jun-22 13:30N 53°33' E 009°56'0 0.0
2017-Jun-22 13:00N 53°33' E 009°56'0 0.0
2017-Jun-22 12:30N 53°33' E 009°56'0 0.0
2017-Jun-22 12:00N 53°33' E 009°56'0 0.0
2017-Jun-22 11:30N 53°33' E 009°56'0 0.0
2017-Jun-22 11:00N 53°33' E 009°56'0 0.0
2017-Jun-22 10:30N 53°33' E 009°56'0 0.0
2017-Jun-22 10:00N 53°33' E 009°56'0 0.0
2017-Jun-22 09:30N 53°33' E 009°56'0 0.0
2017-Jun-22 09:00N 53°33' E 009°56'0 0.0
2017-Jun-22 08:30N 53°33' E 009°56'0 0.0
2017-Jun-22 08:00N 53°33' E 009°56'0 0.0
2017-Jun-22 07:30N 53°33' E 009°56'0 0.0
2017-Jun-22 07:00N 53°33' E 009°56'0 0.0
2017-Jun-22 06:30N 53°33' E 009°56'0 0.0
2017-Jun-22 06:00N 53°33' E 009°56'0 0.0
2017-Jun-22 05:30N 53°33' E 009°56'0 0.0
2017-Jun-22 05:00N 53°33' E 009°56'0 0.0
2017-Jun-22 04:30N 53°33' E 009°56'0 0.0
2017-Jun-22 04:00N 53°33' E 009°56'2 4.9
2017-Jun-22 03:31N 53°33' E 009°52'4 8.9
2017-Jun-22 03:00N 53°34' E 009°45'713.3
2017-Jun-22 02:31N 53°36' E 009°35'612.6
2017-Jun-22 02:00N 53°42' E 009°30'714.4
2017-Jun-22 01:31N 53°48' E 009°23'714.4
2017-Jun-22 01:01N 53°53' E 009°14'5 9.2
2017-Jun-22 00:30N 53°53' E 009°06'714.9
2017-Jun-22 00:00N 53°51' E 008°54'713.8
2017-Jun-21 23:31N 53°53' E 008°43'815.2
2017-Jun-21 23:00N 53°58' E 008°34'917.4
2017-Jun-21 22:30N 53°60' E 008°19'713.7
2017-Jun-21 22:00N 53°59' E 008°07'612.2
2017-Jun-21 21:30N 53°58' E 007°57'612.5
2017-Jun-21 21:00N 53°57' E 007°47'713.5
2017-Jun-21 20:30N 53°55' E 007°36'714.9
2017-Jun-21 20:00N 53°54' E 007°23'915.1
2017-Jun-21 19:24N 53°52' E 007°08'1315.7
2017-Jun-21 18:35N 53°49' E 006°47'116.0
2017-Jun-21 18:31N 53°48' E 006°45'816.0
2017-Jun-21 18:00N 53°47' E 006°32'1816.2
2017-Jun-21 16:55N 53°41' E 006°03'916.3
2017-Jun-21 16:23N 53°39' E 005°49'616.5
2017-Jun-21 16:01N 53°37' E 005°40'816.8
2017-Jun-21 15:31N 53°34' E 005°26'917.1
2017-Jun-21 15:00N 53°31' E 005°13'1717.4
2017-Jun-21 14:01N 53°25' E 004°45'917.7
2017-Jun-21 13:30N 53°17' E 004°39'918.3
2017-Jun-21 13:00N 53°09' E 004°32'918.0
2017-Jun-21 12:31N 53°01' E 004°24'917.9
2017-Jun-21 12:01N 52°54' E 004°16'917.8
2017-Jun-21 11:29N 52°46' E 004°07'1020.3
2017-Jun-21 11:00N 52°39' E 003°56'1121.0
2017-Jun-21 10:30N 52°31' E 003°45'1020.8
2017-Jun-21 10:00N 52°23' E 003°34'20813372.7
2017-Jun-21 10:00N 50°48' W 001°24'199409.8 110 / 241020.0 17.0 16.0
2017-Jun-21 09:30N 52°16' E 003°22'1120.3
2017-Jun-21 08:59N 52°08' E 003°10'1020.2
2017-Jun-21 08:29N 52°01' E 002°59'1019.8
2017-Jun-21 08:00N 51°54' E 002°48'1019.6
2017-Jun-21 07:30N 51°46' E 002°38'1019.4
2017-Jun-21 06:59N 51°38' E 002°28'919.2
2017-Jun-21 06:31N 51°31' E 002°19'918.7
2017-Jun-21 06:01N 51°23' E 002°11'918.6
2017-Jun-21 05:31N 51°15' E 002°04'918.2
2017-Jun-21 05:00N 51°10' E 001°52'918.0
2017-Jun-21 04:31N 51°04' E 001°41'917.9
2017-Jun-21 04:01N 50°58' E 001°30'917.8
2017-Jun-21 03:30N 50°50' E 001°24'1018.4
2017-Jun-21 02:57N 50°41' E 001°17'818.9
2017-Jun-21 02:30N 50°35' E 001°09'1419.0
2017-Jun-21 01:45N 50°28' E 000°49'519.2
2017-Jun-21 01:29N 50°27' E 000°40'1019.0
2017-Jun-21 00:55N 50°24' E 000°25'818.8
2017-Jun-21 00:30N 50°23' E 000°12'918.6
2017-Jun-21 00:00N 50°22' W 000°02'918.8
2017-Jun-20 23:31N 50°24' W 000°16'918.8
2017-Jun-20 23:00N 50°29' W 000°29'1019.3
2017-Jun-20 22:31N 50°34' W 000°42'918.4
2017-Jun-20 22:01N 50°39' W 000°54'714.2
2017-Jun-20 21:30N 50°44' W 001°03'917.6
2017-Jun-20 21:01N 50°46' W 001°16'4 8.9
2017-Jun-20 20:30N 50°50' W 001°19'5 9.2
2017-Jun-20 20:00N 50°53' W 001°24'1 1.0
2017-Jun-20 19:25N 50°54' W 001°25'0 0.0
2017-Jun-20 18:55N 50°54' W 001°25'0 0.0
2017-Jun-20 18:28N 50°54' W 001°25'0 0.0
2017-Jun-20 17:58N 50°54' W 001°25'0 0.0
2017-Jun-20 17:28N 50°54' W 001°25'0 0.0
2017-Jun-20 16:55N 50°54' W 001°25'0 0.0
2017-Jun-20 16:28N 50°54' W 001°25'0 0.0
2017-Jun-20 15:58N 50°54' W 001°25'0 0.0
2017-Jun-20 15:25N 50°54' W 001°25'0 0.0
2017-Jun-20 14:55N 50°54' W 001°25'0 0.0
2017-Jun-20 13:58N 50°54' W 001°25'0 0.0
2017-Jun-20 13:28N 50°54' W 001°25'0 0.0
2017-Jun-20 12:58N 50°54' W 001°25'0 0.0
2017-Jun-20 12:28N 50°54' W 001°25'0 0.0
2017-Jun-20 11:55N 50°54' W 001°25'0 0.0
2017-Jun-20 11:28N 50°54' W 001°25'0 0.0
2017-Jun-20 10:55N 50°54' W 001°25'0 0.0
2017-Jun-20 10:25N 50°54' W 001°25'0 0.0
2017-Jun-20 09:55N 50°54' W 001°25'0 0.0
2017-Jun-20 09:25N 50°54' W 001°25'0 0.0
2017-Jun-20 08:55N 50°54' W 001°25'0 0.0
2017-Jun-20 08:25N 50°54' W 001°25'0 0.0
2017-Jun-20 07:55N 50°54' W 001°25'0 0.0
2017-Jun-20 07:28N 50°54' W 001°25'0 0.0
2017-Jun-20 06:58N 50°54' W 001°25'0 0.0
2017-Jun-20 06:28N 50°54' W 001°25'0 0.0
2017-Jun-20 05:58N 50°54' W 001°25'0 0.0
2017-Jun-20 05:29N 50°54' W 001°25'1 2.6
2017-Jun-20 05:00N 50°53' W 001°24'5 9.6
2017-Jun-20 04:30N 50°50' W 001°18'4 8.7
2017-Jun-20 04:00N 50°46' W 001°14'817.0
2017-Jun-20 03:31N 50°43' W 001°02'714.1
2017-Jun-20 03:00N 50°38' W 000°54'713.8
2017-Jun-20 02:30N 50°34' W 000°45'816.2
2017-Jun-20 02:00N 50°33' W 000°33'918.6
2017-Jun-20 01:30N 50°32' W 000°18'1019.3
2017-Jun-20 01:00N 50°32' W 000°03'1019.9
2017-Jun-20 00:30N 50°34' E 000°12'1020.0
2017-Jun-20 00:00N 50°37' E 000°27'1019.7
2017-Jun-19 23:30N 50°42' E 000°41'1019.4
2017-Jun-19 23:00N 50°48' E 000°53'1019.6
2017-Jun-19 22:30N 50°54' E 001°06'1019.9
2017-Jun-19 22:00N 50°60' E 001°18'1019.7
2017-Jun-19 21:30N 51°05' E 001°31'1019.0
2017-Jun-19 21:00N 51°12' E 001°42'918.6
2017-Jun-19 20:30N 51°19' E 001°52'918.8
2017-Jun-19 20:00N 51°27' E 001°59'1019.4
2017-Jun-19 19:30N 51°35' E 002°09'1019.8
2017-Jun-19 19:00N 51°42' E 002°19'1020.3
2017-Jun-19 18:30N 51°50' E 002°29'1020.1
2017-Jun-19 18:00N 51°59' E 002°38'1121.2
2017-Jun-19 17:30N 52°10' E 002°37'1221.6
2017-Jun-19 16:56N 52°22' E 002°37'2121.7
2017-Jun-19 15:59N 52°42' E 002°37'1021.5
2017-Jun-19 15:30N 52°53' E 002°37'1121.6
2017-Jun-19 15:00N 53°04' E 002°38'1121.6
2017-Jun-19 14:30N 53°14' E 002°43'2220.9
2017-Jun-19 13:28N 53°34' E 002°56'1320.5
2017-Jun-19 12:51N 53°46' E 003°05'720.7
2017-Jun-19 12:30N 53°52' E 003°11'10020.4
2017-Jun-19 07:37N 55°30' E 003°41'320.6
2017-Jun-19 07:30N 55°33' E 003°41'1020.7
2017-Jun-19 06:59N 55°43' E 003°41'1120.9
2017-Jun-19 06:29N 55°53' E 003°41'1221.0
2017-Jun-19 05:55N 56°05' E 003°41'12721.4
2017-Jun-19 00:00N 58°12' E 003°54'14320.4 350 / 81024.0 5.4 11.0 10.0
2017-Jun-18 16:57N 60°35' E 004°22'920.2
2017-Jun-18 16:30N 60°42' E 004°32'713.6
2017-Jun-18 16:00N 60°43' E 004°46'1019.5
2017-Jun-18 15:30N 60°35' E 004°55'1019.3
2017-Jun-18 15:00N 60°26' E 005°03'8 8.3
2017-Jun-18 14:00N 60°24' E 005°19'0 0.0
2017-Jun-18 13:28N 60°24' E 005°19'0 0.0
2017-Jun-18 12:58N 60°24' E 005°19'0 0.0
2017-Jun-18 12:28N 60°24' E 005°19'0 0.0
2017-Jun-18 11:58N 60°24' E 005°19'0 0.0
2017-Jun-18 11:19N 60°24' E 005°19'0 0.0
2017-Jun-18 10:58N 60°24' E 005°19'0 0.0
2017-Jun-18 10:25N 60°24' E 005°19'0 0.0
2017-Jun-18 09:58N 60°24' E 005°19'0 0.0
2017-Jun-18 09:28N 60°24' E 005°19'0 0.0
2017-Jun-18 08:58N 60°24' E 005°19'0 0.0
2017-Jun-18 08:28N 60°24' E 005°19'0 0.0
2017-Jun-18 07:58N 60°24' E 005°19'0 0.0
2017-Jun-18 07:28N 60°24' E 005°19'0 0.0
2017-Jun-18 06:58N 60°24' E 005°19'0 0.0
2017-Jun-18 06:28N 60°24' E 005°19'0 0.0
2017-Jun-18 05:58N 60°24' E 005°19'0 0.0
2017-Jun-18 05:28N 60°24' E 005°19'0 0.0
2017-Jun-18 04:58N 60°24' E 005°19'0 0.1
2017-Jun-18 04:30N 60°24' E 005°19'1 2.3
2017-Jun-18 04:00N 60°24' E 005°17'3 6.4
2017-Jun-18 03:30N 60°23' E 005°11'4 8.9
2017-Jun-18 03:00N 60°25' E 005°03'612.7
2017-Jun-18 02:29N 60°31' E 004°57'612.8
2017-Jun-18 02:00N 60°37' E 004°53'611.7
2017-Jun-18 01:31N 60°43' E 004°49'612.0
2017-Jun-18 01:00N 60°48' E 004°44'612.6
2017-Jun-18 00:30N 60°54' E 004°41'612.4
2017-Jun-18 00:00N 60°60' E 004°46'612.0
2017-Jun-17 23:29N 61°03' E 004°57'612.2
2017-Jun-17 23:00N 61°06' E 005°08'611.4
2017-Jun-17 22:30N 61°04' E 005°19'611.0
2017-Jun-17 22:00N 61°05' E 005°31'713.7
2017-Jun-17 21:30N 61°08' E 005°43'714.0
2017-Jun-17 21:00N 61°08' E 005°58'714.1
2017-Jun-17 20:30N 61°08' E 006°13'713.8
2017-Jun-17 20:00N 61°06' E 006°27'713.2
2017-Jun-17 19:30N 61°11' E 006°37'713.9
2017-Jun-17 19:00N 61°09' E 006°51'713.8
2017-Jun-17 18:30N 61°04' E 007°01'713.8
2017-Jun-17 18:00N 60°58' E 007°06'5 9.4
2017-Jun-17 17:30N 60°54' E 007°09'2 4.3
2017-Jun-17 17:00N 60°52' E 007°07'0 0.0
2017-Jun-17 16:29N 60°52' E 007°07'0 0.0
2017-Jun-17 15:59N 60°52' E 007°07'0 0.0
2017-Jun-17 15:29N 60°52' E 007°07'0 0.0
2017-Jun-17 14:59N 60°52' E 007°07'0 0.0
2017-Jun-17 14:29N 60°52' E 007°07'0 0.0
2017-Jun-17 13:29N 60°52' E 007°07'0 0.0
2017-Jun-17 12:59N 60°52' E 007°07'0 0.0
2017-Jun-17 12:29N 60°52' E 007°07'0 0.0
2017-Jun-17 11:59N 60°52' E 007°07'0 0.0
2017-Jun-17 11:29N 60°52' E 007°07'0 0.0
2017-Jun-17 10:59N 60°52' E 007°07'0 0.0
2017-Jun-17 10:29N 60°52' E 007°07'0 0.0
2017-Jun-17 09:59N 60°52' E 007°07'0 0.0
2017-Jun-17 09:29N 60°52' E 007°07'0 0.0
2017-Jun-17 08:59N 60°52' E 007°07'0 0.0
2017-Jun-17 08:29N 60°52' E 007°07'0 0.0
2017-Jun-17 07:59N 60°52' E 007°07'0 0.0
2017-Jun-17 07:29N 60°52' E 007°07'0 0.0
2017-Jun-17 06:59N 60°52' E 007°07'0 0.1
2017-Jun-17 06:30N 60°52' E 007°07'2 3.9
2017-Jun-17 06:00N 60°54' E 007°09'5 9.9
2017-Jun-17 05:30N 60°58' E 007°05'714.0
2017-Jun-17 05:00N 61°05' E 007°01'815.4
2017-Jun-17 04:30N 61°10' E 006°48'713.7
2017-Jun-17 04:00N 61°09' E 006°34'918.4
2017-Jun-17 03:30N 61°07' E 006°15'1121.6
2017-Jun-17 03:00N 61°08' E 005°53'1121.1
2017-Jun-17 02:30N 61°05' E 005°32'1019.4
2017-Jun-17 02:00N 61°06' E 005°12'816.1
2017-Jun-17 01:30N 61°12' E 005°00'713.3
2017-Jun-17 01:00N 61°15' E 004°48'918.5
2017-Jun-17 00:30N 61°16' E 004°29'1019.8
2017-Jun-17 00:00N 61°25' E 004°25'2130.5
2017-Jun-17 00:00N 61°24' E 004°24'1224.0 240 / 141019.0 5.4 12.0 10.0
2017-Jun-16 23:30N 61°36' E 004°24'1020.1
2017-Jun-16 23:00N 61°46' E 004°28'1020.4
2017-Jun-16 22:31N 61°55' E 004°36'1020.3
2017-Jun-16 22:00N 62°04' E 004°45'1020.1
2017-Jun-16 21:30N 62°13' E 004°55'1019.9
2017-Jun-16 21:01N 62°22' E 005°06'1019.7
2017-Jun-16 20:30N 62°29' E 005°20'1019.7
2017-Jun-16 20:00N 62°30' E 005°42'1020.1
2017-Jun-16 19:30N 62°26' E 006°02'918.3
2017-Jun-16 19:00N 62°24' E 006°20'1020.3
2017-Jun-16 18:30N 62°27' E 006°41'816.6
2017-Jun-16 18:00N 62°22' E 006°56'917.8
2017-Jun-16 17:30N 62°14' E 007°02'714.6
2017-Jun-16 17:00N 62°06' E 006°58'611.4
2017-Jun-16 16:30N 62°07' E 007°10'1 2.4
2017-Jun-16 15:59N 62°06' E 007°12'0 0.0
2017-Jun-16 15:29N 62°06' E 007°12'0 0.0
2017-Jun-16 14:59N 62°06' E 007°12'0 0.0
2017-Jun-16 14:29N 62°06' E 007°12'0 0.0
2017-Jun-16 13:30N 62°06' E 007°12'0 0.0
2017-Jun-16 13:00N 62°06' E 007°12'0 0.0
2017-Jun-16 12:30N 62°06' E 007°12'0 0.0
2017-Jun-16 12:00N 62°06' E 007°12'0 0.0
2017-Jun-16 11:30N 62°06' E 007°12'0 0.0
2017-Jun-16 11:00N 62°06' E 007°12'0 0.0
2017-Jun-16 10:30N 62°06' E 007°12'0 0.0
2017-Jun-16 09:58N 62°06' E 007°12'0 0.0
2017-Jun-16 09:28N 62°06' E 007°12'0 0.0
2017-Jun-16 08:58N 62°06' E 007°12'0 0.1
2017-Jun-16 08:30N 62°06' E 007°12'1 1.5
2017-Jun-16 08:00N 62°07' E 007°11'612.0
2017-Jun-16 07:30N 62°06' E 006°58'3 1.3
2017-Jun-16 05:23N 62°05' E 006°53'2 3.6
2017-Jun-16 04:56N 62°06' E 006°55'3 6.2
2017-Jun-16 04:30N 62°08' E 006°58'2 4.9
2017-Jun-16 04:00N 62°10' E 007°01'3 5.3
2017-Jun-16 03:30N 62°13' E 007°02'3 5.7
2017-Jun-16 03:00N 62°16' E 007°01'3 5.1
2017-Jun-16 02:30N 62°18' E 006°59'3 5.4
2017-Jun-16 02:00N 62°21' E 006°56'3 5.5
2017-Jun-16 01:30N 62°23' E 006°55'3 5.1
2017-Jun-16 01:00N 62°26' E 006°53'3 5.7
2017-Jun-16 00:30N 62°27' E 006°48'3 5.5
2017-Jun-16 00:00N 62°28' E 006°42'52712.2
2017-Jun-16 00:00N 62°24' E 006°36'3 5.1 250 / 51008.0 5.4 13.0 11.0
2017-Jun-15 23:30N 62°27' E 006°36'3 5.6
2017-Jun-15 23:00N 62°25' E 006°31'3 5.6
2017-Jun-15 22:30N 62°24' E 006°25'3 5.6
2017-Jun-15 22:00N 62°24' E 006°19'3 5.7
2017-Jun-15 21:30N 62°23' E 006°13'3 5.6
2017-Jun-15 20:59N 62°23' E 006°07'3 5.3
2017-Jun-15 20:30N 62°24' E 006°03'2 4.7
2017-Jun-15 20:00N 62°27' E 006°03'3 6.0
2017-Jun-15 19:30N 62°27' E 006°09'1 2.0
2017-Jun-15 18:59N 62°28' E 006°09'0 0.0
2017-Jun-15 18:29N 62°28' E 006°09'0 0.0
2017-Jun-15 17:59N 62°28' E 006°09'0 0.0
2017-Jun-15 17:29N 62°28' E 006°09'0 0.0
2017-Jun-15 16:59N 62°28' E 006°09'0 0.0
2017-Jun-15 16:29N 62°28' E 006°09'0 0.0
2017-Jun-15 15:59N 62°28' E 006°09'0 0.0
2017-Jun-15 15:29N 62°28' E 006°09'0 0.0
2017-Jun-15 14:59N 62°28' E 006°09'0 0.0
2017-Jun-15 14:29N 62°28' E 006°09'0 0.0
2017-Jun-15 13:29N 62°28' E 006°09'0 0.0
2017-Jun-15 12:59N 62°28' E 006°09'0 0.0
2017-Jun-15 12:29N 62°28' E 006°09'0 0.0
2017-Jun-15 11:59N 62°28' E 006°09'0 0.0
2017-Jun-15 11:29N 62°28' E 006°09'0 0.0
2017-Jun-15 10:59N 62°28' E 006°09'0 0.0
2017-Jun-15 10:29N 62°28' E 006°09'0 0.0
2017-Jun-15 09:59N 62°28' E 006°09'0 0.0
2017-Jun-15 09:29N 62°28' E 006°09'0 0.0
2017-Jun-15 08:59N 62°28' E 006°09'0 0.0
2017-Jun-15 08:29N 62°28' E 006°09'0 0.0
2017-Jun-15 07:59N 62°28' E 006°09'0 0.0
2017-Jun-15 07:29N 62°28' E 006°09'0 0.0
2017-Jun-15 06:59N 62°28' E 006°09'0 0.0
2017-Jun-15 06:29N 62°28' E 006°09'0 0.0
2017-Jun-15 05:59N 62°28' E 006°09'0 0.0
2017-Jun-15 05:29N 62°28' E 006°09'1 2.2
2017-Jun-15 05:00N 62°27' E 006°11'510.9
2017-Jun-15 04:30N 62°27' E 005°59'612.5
2017-Jun-15 04:00N 62°29' E 005°46'714.1
2017-Jun-15 03:30N 62°30' E 005°31'714.9
2017-Jun-15 03:00N 62°27' E 005°16'816.3
2017-Jun-15 02:30N 62°22' E 005°04'816.7
2017-Jun-15 02:00N 62°16' E 004°50'816.0
2017-Jun-15 01:30N 62°11' E 004°38'2616.8
2017-Jun-15 00:00N 61°48' E 004°12'13216.1 180 / 151015.0 5.4 12.0 12.0
2017-Jun-14 15:47N 59°36' E 004°11'517.1
2017-Jun-14 15:31N 59°31' E 004°11'917.2
2017-Jun-14 15:00N 59°23' E 004°12'1817.6
2017-Jun-14 14:00N 59°05' E 004°12'918.3
2017-Jun-14 13:30N 58°56' E 004°16'918.1
2017-Jun-14 13:01N 58°47' E 004°20'175.3
2017-Jun-14 13:00N 58°48' E 004°18'1020.6 170 / 111019.0 0.0 12.0 11.0
2017-Jun-14 12:31N 58°39' E 004°25'918.0
2017-Jun-14 12:01N 58°31' E 004°32'918.2
2017-Jun-14 11:31N 58°22' E 004°39'1218.0
2017-Jun-14 10:52N 58°11' E 004°47'718.1
2017-Jun-14 10:30N 58°05' E 004°51'16120.8
2017-Jun-14 02:46N 55°33' E 006°28'520.8
2017-Jun-14 02:31N 55°28' E 006°32'1120.8
2017-Jun-14 01:59N 55°18' E 006°38'1020.5
2017-Jun-14 01:30N 55°09' E 006°44'1020.2
2017-Jun-14 01:01N 54°59' E 006°50'1020.0
2017-Jun-14 00:30N 54°50' E 006°57'1819.6
2017-Jun-13 23:35N 54°35' E 007°14'4219.2
2017-Jun-13 21:22N 54°03' E 008°01'718.2
2017-Jun-13 21:00N 54°01' E 008°12'815.1
2017-Jun-13 20:30N 53°59' E 008°24'1019.8
2017-Jun-13 20:00N 53°56' E 008°40'714.4
2017-Jun-13 19:30N 53°50' E 008°48'1019.1
2017-Jun-13 19:00N 53°52' E 009°04'612.7
2017-Jun-13 18:31N 53°53' E 009°15'714.2
2017-Jun-13 18:01N 53°48' E 009°23'713.3
2017-Jun-13 17:31N 53°42' E 009°30'611.7
2017-Jun-13 17:01N 53°37' E 009°34'611.6
2017-Jun-13 16:30N 53°34' E 009°42'5 9.3
2017-Jun-13 16:00N 53°33' E 009°50'4 7.5
2017-Jun-13 15:31N 53°32' E 009°56'0 0.3
2017-Jun-13 14:58N 53°33' E 009°56'0 0.0
2017-Jun-13 13:58N 53°33' E 009°56'0 0.0
2017-Jun-13 13:28N 53°33' E 009°56'0 0.0
2017-Jun-13 12:58N 53°33' E 009°56'0 0.0
2017-Jun-13 12:28N 53°33' E 009°56'0 0.0
2017-Jun-13 11:58N 53°33' E 009°56'0 0.0
2017-Jun-13 11:28N 53°33' E 009°56'0 0.0
2017-Jun-13 10:58N 53°33' E 009°56'0 0.0
2017-Jun-13 10:28N 53°33' E 009°56'0 0.0
2017-Jun-13 09:58N 53°33' E 009°56'0 0.0
2017-Jun-13 09:28N 53°33' E 009°56'0 0.0
2017-Jun-13 08:58N 53°33' E 009°56'0 0.0
2017-Jun-13 08:28N 53°33' E 009°56'0 0.0
2017-Jun-13 07:58N 53°33' E 009°56'0 0.0
2017-Jun-13 07:25N 53°33' E 009°56'0 0.0
2017-Jun-13 06:58N 53°33' E 009°56'0 0.0
2017-Jun-13 06:28N 53°33' E 009°56'0 0.0
2017-Jun-13 05:58N 53°33' E 009°56'0 0.0
2017-Jun-13 05:28N 53°33' E 009°56'0 0.0
2017-Jun-13 04:58N 53°33' E 009°56'0 0.0
2017-Jun-13 04:28N 53°33' E 009°56'0 0.0
2017-Jun-13 03:59N 53°33' E 009°56'2 3.7
2017-Jun-13 03:30N 53°32' E 009°53'5 9.5
2017-Jun-13 03:00N 53°34' E 009°46'612.4
2017-Jun-13 02:31N 53°36' E 009°36'612.7
2017-Jun-13 02:00N 53°41' E 009°30'815.6
2017-Jun-13 01:31N 53°48' E 009°23'815.2
2017-Jun-13 01:01N 53°53' E 009°13'510.9
2017-Jun-13 00:31N 53°52' E 009°04'714.9
2017-Jun-13 00:00N 53°50' E 008°52'714.2
2017-Jun-12 23:30N 53°54' E 008°42'815.3
2017-Jun-12 23:00N 53°58' E 008°31'816.3
2017-Jun-12 22:30N 53°60' E 008°17'612.0
2017-Jun-12 21:58N 53°59' E 008°06'714.5
2017-Jun-12 21:30N 53°58' E 007°55'8015.9
2017-Jun-12 16:29N 53°38' E 005°44'  

Dump ship's entire track history